Latest Weather Observations for Emerald

IDQ60801

Issued at 6:05 pm EST Thursday 24 April 2014 (issued every 30 minutes, with the page automatically refreshed every 10 minutes)

About weather observations | Map of weather stations | Latest weather observations for QLD | Other Formats
Station Details ID: 035264 Name: EMERALD AIRPORT Lat: -23.57 Lon: 148.18 Height: 189.4 m
Data from the previous 72 hours. | See also: Recent months at Emerald
Date/Time
EST
Temp
°C
App
Temp
°C
Dew
Point
Rel
Hum
%
Delta-T
°C
Wind Press
QNH
hPa
Press
MSL
hPa
Rain
since 9 am
mm
Dir
 
Spd
km/h
Gust
km/h
Spd
kts
Gust
kts
24/06:00pm 24.7 22.0 9.0 37 8.6 ESE 13 15 7 8 1013.5 1012.7 0.0
24/05:30pm 27.5 24.5 9.3 32 10.1 SE 15 19 8 10 1013.2 - 0.0
24/05:00pm 29.2 25.2 8.3 27 11.5 ESE 19 24 10 13 1012.9 - 0.0
24/04:30pm 29.6 25.3 6.9 24 12.3 ESE 19 24 10 13 1012.5 - 0.0
24/04:00pm 29.8 25.9 8.8 27 11.7 SE 19 24 10 13 1012.5 - 0.0
24/03:30pm 30.4 25.4 8.2 25 12.3 SE 24 35 13 19 1012.5 - 0.0
24/03:00pm 30.0 26.2 9.0 27 11.8 ESE 19 28 10 15 1012.6 1011.8 0.0
24/02:30pm 29.8 25.4 8.8 27 11.7 SE 22 35 12 19 1012.9 - 0.0
24/02:00pm 29.5 25.5 9.1 28 11.4 SE 20 30 11 16 1013.1 - 0.0
24/01:30pm 29.1 26.9 12.1 35 10.0 ESE 15 26 8 14 1013.4 - 0.0
24/01:00pm 29.2 25.8 12.6 36 9.8 E 22 32 12 17 1014.3 - 0.0
24/12:30pm 28.4 26.5 13.1 39 9.1 SE 15 24 8 13 1014.7 - 0.0
24/12:00pm 27.9 26.5 14.5 44 8.1 E 15 22 8 12 1015.2 1014.3 0.0
24/11:30am 27.1 26.7 15.1 47 7.3 E 11 22 6 12 1015.8 - 0.0
24/11:00am 26.5 26.6 16.4 53 6.3 E 11 20 6 11 1016.6 - 0.0
24/10:30am 25.8 26.2 17.2 59 5.4 E 11 22 6 12 1017.2 - 0.0
24/10:00am 24.6 24.6 17.3 64 4.6 ESE 13 19 7 10 1017.7 - 0.0
24/09:30am 24.2 24.7 18.4 70 3.7 E 13 19 7 10 1017.8 - 0.0
24/09:00am 23.0 23.9 18.5 76 2.8 SE 11 17 6 9 1017.7 1016.9 0.0
24/08:30am 21.4 22.3 18.4 83 1.9 SSE 11 15 6 8 1017.4 - 0.0
24/08:00am 19.6 19.8 18.6 94 0.6 SSE 15 19 8 10 1016.9 - 0.0
24/07:30am 17.8 19.1 17.5 98 0.2 SSE 7 9 4 5 1016.7 - 0.0
24/07:00am 17.3 18.4 17.0 98 0.2 SSE 7 11 4 6 1016.3 - 0.0
24/06:30am 17.5 18.6 17.0 97 0.3 SSE 7 9 4 5 1016.2 - 0.0
24/06:00am 18.0 19.3 17.5 97 0.3 S 7 9 4 5 1015.9 1015.1 0.0
24/05:30am 18.6 20.3 18.1 97 0.3 E 6 7 3 4 1015.7 - 0.0
24/05:00am 18.9 20.2 18.4 97 0.3 SSE 9 11 5 6 1014.8 - 0.0
24/04:30am 19.2 20.2 18.7 97 0.3 SE 11 13 6 7 1014.4 - 0.0
24/04:00am 19.2 20.2 18.7 97 0.3 ESE 11 13 6 7 1014.9 - 0.0
24/03:30am 18.4 19.5 17.9 97 0.3 ESE 9 11 5 6 1015.1 - 0.0
24/03:00am 17.8 20.2 17.0 95 0.5 CALM 0 0 0 0 1015.2 1014.3 0.0
24/02:30am 17.4 19.4 16.1 92 0.8 CALM 0 0 0 0 1015.2 - 0.0
24/02:00am 17.8 19.9 16.3 91 0.9 CALM 0 0 0 0 1015.7 - 0.0
24/01:30am 18.0 20.1 16.2 89 1.1 CALM 0 0 0 0 1015.7 - 0.0
24/01:00am 18.3 20.4 16.3 88 1.2 CALM 0 0 0 0 1016.0 - 0.0
24/12:30am 18.0 18.7 16.0 88 1.2 ESE 7 9 4 5 1016.1 - 0.0
24/12:00am 18.4 18.9 15.5 83 1.7 ENE 7 9 4 5 1016.2 1015.4 0.0
 
Date/Time
EST
Temp
°C
App
Temp
°C
Dew
Point
Rel
Hum
%
Delta-T
°C
Wind Press
QNH
hPa
Press
MSL
hPa
Rain
since 9 am
mm
Dir
 
Spd
km/h
Gust
km/h
Spd
kts
Gust
kts
23/11:30pm 19.6 20.6 16.4 82 1.9 NNE 6 7 3 4 1016.7 - 0.0
23/11:00pm 18.9 19.5 15.4 80 2.1 E 6 7 3 4 1016.8 - 0.0
23/10:30pm 19.0 18.8 14.7 76 2.5 ENE 9 11 5 6 1016.8 - 0.0
23/10:00pm 19.7 19.7 15.1 75 2.7 E 9 11 5 6 1017.2 - 0.0
23/09:30pm 19.9 19.7 14.7 72 3.1 E 9 11 5 6 1017.1 - 0.0
23/09:00pm 20.7 21.3 15.3 71 3.2 E 6 7 3 4 1016.9 1016.1 0.0
23/08:30pm 20.9 21.3 14.8 68 3.6 ENE 6 7 3 4 1016.6 - 0.0
23/08:00pm 22.1 22.4 15.0 64 4.2 NNE 7 7 4 4 1016.5 - 0.0
23/07:30pm 22.9 23.3 15.2 62 4.6 NE 7 9 4 5 1016.1 - 0.0
23/07:00pm 22.9 23.0 14.5 59 5.0 NE 7 9 4 5 1015.6 - 0.0
23/06:30pm 23.8 24.0 14.8 57 5.4 ENE 7 9 4 5 1015.4 - 0.0
23/06:00pm 24.4 24.1 14.5 54 5.9 ENE 9 11 5 6 1015.0 1014.1 0.0
23/05:30pm 25.9 25.3 14.7 50 6.8 NE 11 17 6 9 1014.8 - 0.0
23/05:00pm 26.8 26.8 14.2 46 7.6 E 7 11 4 6 1014.5 - 0.0
23/04:30pm 27.8 26.5 13.7 42 8.4 SE 13 19 7 10 1014.3 - 0.0
23/04:00pm 28.3 27.3 13.4 40 8.9 E 11 17 6 9 1014.3 - 0.0
23/03:30pm 27.6 25.6 12.8 40 8.7 SE 15 20 8 11 1014.4 - 0.0
23/03:00pm 28.1 26.3 13.2 39 8.9 ESE 15 19 8 10 1014.5 1013.6 0.0
23/02:30pm 28.3 27.8 13.8 41 8.7 ESE 9 17 5 9 1014.9 - 0.0
23/02:00pm 27.7 26.8 13.6 42 8.4 SE 11 19 6 10 1015.1 - 0.0
23/01:30pm 27.0 25.9 14.4 46 7.6 ESE 13 17 7 9 1015.3 - 0.0
23/01:00pm 27.7 25.6 14.7 45 7.9 ESE 19 24 10 13 1015.6 - 0.0
23/12:30pm 26.8 25.5 14.9 48 7.2 SSE 15 28 8 15 1016.3 - 0.0
23/12:00pm 26.6 25.8 15.0 49 7.0 ESE 13 20 7 11 1016.7 1015.9 0.0
23/11:30am 26.3 25.6 16.5 54 6.1 ESE 15 22 8 12 1017.4 - 0.0
23/11:00am 26.0 25.3 16.3 55 6.0 E 15 22 8 12 1017.9 - 0.0
23/10:30am 25.9 24.9 16.7 57 5.7 E 17 22 9 12 1018.2 - 0.0
23/10:00am 24.8 24.0 17.0 62 4.9 E 17 22 9 12 1018.4 - 0.0
23/09:30am 24.2 23.1 17.2 65 4.4 E 19 26 10 14 1018.6 - 0.0
23/09:00am 23.4 22.6 16.2 64 4.4 ESE 15 22 8 12 1018.5 1017.7 0.0
23/08:30am 21.8 21.0 15.2 66 4.0 SE 13 17 7 9 1018.4 - 0.0
23/08:00am 20.6 20.2 15.2 71 3.2 SSE 11 15 6 8 1018.4 - 0.0
23/07:30am 19.3 19.1 15.8 80 2.1 SSE 11 15 6 8 1018.1 - 0.0
23/07:00am 18.3 18.5 15.7 85 1.5 SE 9 11 5 6 1018.0 - 0.0
23/06:30am 17.7 17.4 15.5 87 1.3 SE 11 11 6 6 1017.8 - 0.0
23/06:00am 17.8 18.2 15.2 85 1.5 SE 7 9 4 5 1017.5 1016.7 0.0
23/05:30am 18.2 19.6 15.3 83 1.7 E 2 6 1 3 1017.3 - 0.0
23/05:00am 18.1 18.5 15.2 83 1.7 SSE 7 9 4 5 1017.0 - 0.0
23/04:30am 18.1 18.7 15.2 83 1.7 E 6 7 3 4 1016.9 - 0.0
23/04:00am 18.4 18.7 15.1 81 1.9 NE 7 9 4 5 1016.9 - 0.0
23/03:30am 18.5 18.4 15.0 80 2.1 E 9 11 5 6 1016.6 - 0.0
23/03:00am 18.3 17.8 15.0 81 1.9 E 11 13 6 7 1016.9 1016.1 0.0
23/02:30am 18.6 18.8 14.7 78 2.3 SE 7 11 4 6 1017.3 - 0.0
23/02:00am 18.9 19.3 14.8 77 2.4 ESE 6 9 3 5 1017.6 - 0.0
23/01:30am 19.6 19.8 14.8 74 2.8 ENE 7 9 4 5 1017.5 - 0.0
23/01:00am 19.9 20.0 14.5 71 3.2 E 7 9 4 5 1017.5 - 0.0
23/12:30am 20.6 20.6 14.3 67 3.7 ENE 7 11 4 6 1018.1 - 0.0
23/12:00am 21.6 20.5 14.3 63 4.3 ENE 13 22 7 12 1018.2 1017.4 0.0
 
Date/Time
EST
Temp
°C
App
Temp
°C
Dew
Point
Rel
Hum
%
Delta-T
°C
Wind Press
QNH
hPa
Press
MSL
hPa
Rain
since 9 am
mm
Dir
 
Spd
km/h
Gust
km/h
Spd
kts
Gust
kts
22/11:30pm 22.3 20.0 14.2 60 4.8 ENE 19 22 10 12 1018.2 - 0.0
22/11:00pm 22.4 21.2 15.0 63 4.4 ENE 15 20 8 11 1018.4 - 0.0
22/10:30pm 22.3 21.4 14.9 63 4.4 NE 13 17 7 9 1018.4 - 0.0
22/10:00pm 22.7 21.5 15.0 61 4.6 ENE 15 19 8 10 1018.1 - 0.0
22/09:30pm 22.6 21.6 14.7 61 4.7 ENE 13 17 7 9 1018.2 - 0.0
22/09:00pm 22.3 21.2 14.2 60 4.8 E 13 17 7 9 1018.3 1017.5 0.0
22/08:30pm 21.9 21.0 13.8 60 4.7 E 11 13 6 7 1018.2 - 0.0
22/08:00pm 22.3 21.4 13.6 58 5.1 E 11 13 6 7 1018.1 - 0.0
22/07:30pm 22.5 21.0 13.0 55 5.5 E 13 13 7 7 1017.7 - 0.0
22/07:00pm 23.5 22.0 13.1 52 6.1 E 13 22 7 12 1017.3 - 0.0
22/06:30pm 24.2 22.1 12.5 48 6.8 E 15 17 8 9 1017.0 - 0.0
22/06:00pm 25.1 22.5 12.0 44 7.5 E 17 19 9 10 1016.6 1015.8 0.0
22/05:30pm 26.5 23.3 11.4 39 8.7 E 19 24 10 13 1016.3 - 0.0
22/05:00pm 27.5 24.7 11.5 37 9.2 ENE 17 24 9 13 1016.1 - 0.0
22/04:30pm 28.2 26.0 10.9 34 9.9 NE 13 19 7 10 1016.0 - 0.0
22/04:00pm 28.5 25.8 10.2 32 10.4 NE 15 22 8 12 1016.0 - 0.0
22/03:30pm 29.1 27.1 10.3 31 10.7 N 11 17 6 9 1015.9 - 0.0
22/03:00pm 28.7 26.9 9.4 30 10.8 NNE 9 17 5 9 1016.0 1015.2 0.0
22/02:30pm 28.3 25.4 9.6 31 10.5 E 15 20 8 11 1016.2 - 0.0
22/02:00pm 28.4 25.9 8.1 28 11.1 NNE 11 20 6 11 1016.3 - 0.0
22/01:30pm 27.7 24.3 7.5 28 10.9 ESE 15 28 8 15 1016.9 - 0.0
22/01:00pm 28.0 25.5 8.3 29 10.8 E 11 19 6 10 1017.4 - 0.0
22/12:30pm 27.8 25.8 8.6 30 10.6 NE 9 17 5 9 1018.1 - 0.0
22/12:00pm 26.8 23.9 9.6 34 9.6 NE 15 26 8 14 1018.6 1017.8 0.0
22/11:30am 26.3 24.3 10.0 36 9.1 NE 11 19 6 10 1019.5 - 0.0
22/11:00am 25.5 22.3 10.1 38 8.6 NE 17 24 9 13 1020.0 - 0.0
22/10:30am 25.1 21.4 9.4 37 8.6 ENE 19 28 10 15 1020.5 - 0.0
22/10:00am 24.9 22.4 12.2 45 7.3 E 17 28 9 15 1020.8 - 0.0
22/09:30am 23.8 21.7 13.6 52 6.0 E 17 24 9 13 1021.2 - 0.0
22/09:00am 22.2 20.9 13.8 59 4.9 SE 13 19 7 10 1021.2 1020.4 0.0
22/08:30am 21.0 19.3 13.7 63 4.2 SSE 15 19 8 10 1021.0 - 0.0
22/08:00am 19.2 18.3 13.8 71 3.1 SSE 11 15 6 8 1020.7 - 0.0
22/07:30am 17.1 16.3 14.0 82 1.8 SSE 11 15 6 8 1020.5 - 0.0
22/07:00am 15.3 14.9 13.1 87 1.2 SSE 7 11 4 6 1020.2 - 0.0
22/06:30am 14.7 14.3 12.9 89 1.0 S 7 9 4 5 1020.0 - 0.0
22/06:00am 14.4 13.9 12.6 89 1.0 S 7 7 4 4 1019.9 1019.0 0.0
22/05:30am 14.6 15.4 12.5 87 1.2 CALM 0 0 0 0 1019.5 - 0.0
22/05:00am 15.1 15.3 13.1 88 1.1 E 4 6 2 3 1019.5 - 0.0
22/04:30am 15.0 14.8 12.9 87 1.2 E 6 7 3 4 1019.3 - 0.0
22/04:00am 15.1 14.7 13.0 87 1.2 E 7 7 4 4 1019.1 - 0.0
22/03:30am 14.9 14.0 12.6 86 1.3 E 9 9 5 5 1019.1 - 0.0
22/03:00am 15.4 14.9 12.7 84 1.5 E 7 7 4 4 1019.4 1018.5 0.0
22/02:30am 15.4 14.5 12.7 84 1.5 ESE 9 11 5 6 1019.5 - 0.0
22/02:00am 15.1 13.4 12.4 84 1.5 ESE 13 13 7 7 1019.7 - 0.0
22/01:30am 15.5 14.1 12.3 81 1.8 ESE 11 13 6 7 1019.6 - 0.0
22/01:00am 15.7 14.3 12.1 79 2.0 ESE 11 15 6 8 1019.5 - 0.0
22/12:30am 16.8 16.4 12.3 75 2.5 ENE 6 9 3 5 1019.5 - 0.0
22/12:00am 17.3 16.4 12.6 74 2.6 E 9 9 5 5 1019.5 1018.6 0.0
 
Date/Time
EST
Temp
°C
App
Temp
°C
Dew
Point
Rel
Hum
%
Delta-T
°C
Wind Press
QNH
hPa
Press
MSL
hPa
Rain
since 9 am
mm
Dir
 
Spd
km/h
Gust
km/h
Spd
kts
Gust
kts
21/11:30pm 17.8 16.9 12.5 71 3.0 E 9 9 5 5 1019.7 - 0.0
21/11:00pm 19.2 18.3 12.5 65 3.8 NE 9 11 5 6 1019.7 - 0.0
21/10:30pm 19.1 18.0 11.9 63 4.0 E 9 9 5 5 1019.9 - 0.0
21/10:00pm 20.4 18.6 12.1 59 4.7 ENE 13 17 7 9 1019.9 - 0.0
21/09:30pm 20.9 19.4 11.8 56 5.1 NE 11 15 6 8 1019.5 - 0.0
21/09:00pm 20.5 18.9 11.4 56 5.1 NE 11 13 6 7 1019.3 1018.4 0.0
21/08:30pm 20.4 18.7 11.3 56 5.1 ENE 11 13 6 7 1019.1 - 0.0
21/08:00pm 21.8 20.2 11.5 52 5.8 ENE 11 15 6 8 1018.9 - 0.0
21/07:30pm 21.6 20.4 11.6 53 5.6 ENE 9 11 5 6 1018.6 - 0.0
21/07:00pm 22.7 21.0 11.1 48 6.5 ENE 11 13 6 7 1018.2 - 0.0
21/06:30pm 24.0 21.8 10.7 43 7.4 ENE 13 17 7 9 1017.9 - 0.0

Other Formats:

Comma delimited format used in spreadsheet applications
http://www.bom.gov.au/fwo/IDQ60801/IDQ60801.94363.axf

JavaScript Object Notation format (JSON) in row-major order
http://www.bom.gov.au/fwo/IDQ60801/IDQ60801.94363.json